sensor_id;sensor_type;location;lat;lon;timestamp;pressure;altitude;pressure_sealevel;temperature;humidity
57610;BME280;43435;46.186;9.024;2023-12-20T06:55:51;98412.66;;;8.33;62.39
57610;BME280;43435;46.186;9.024;2023-12-20T06:58:16;98411.38;;;8.50;62.43
57610;BME280;43435;46.186;9.024;2023-12-20T14:22:12;98237.97;;;15.87;21.78
57610;BME280;43435;46.186;9.024;2023-12-20T14:24:41;98244.00;;;15.94;21.73
57610;BME280;43435;46.186;9.024;2023-12-20T14:27:07;98238.78;;;15.88;21.93
57610;BME280;43435;46.186;9.024;2023-12-20T14:29:34;98242.22;;;15.83;22.17
57610;BME280;43435;46.186;9.024;2023-12-20T14:31:59;98256.69;;;15.82;22.09
57610;BME280;43435;46.186;9.024;2023-12-20T14:34:26;98265.06;;;15.86;21.99
57610;BME280;43435;46.186;9.024;2023-12-20T14:36:51;98262.31;;;15.81;22.19
57610;BME280;43435;46.186;9.024;2023-12-20T14:39:17;98268.03;;;15.84;21.71
57610;BME280;43435;46.186;9.024;2023-12-20T14:41:43;98275.03;;;15.85;22.40
57610;BME280;43435;46.186;9.024;2023-12-20T14:44:08;98262.22;;;15.92;22.02
57610;BME280;43435;46.186;9.024;2023-12-20T14:46:33;98287.66;;;15.85;22.24
57610;BME280;43435;46.186;9.024;2023-12-20T14:48:59;98296.28;;;15.87;21.84
57610;BME280;43435;46.186;9.024;2023-12-20T14:51:27;98284.72;;;15.86;22.10
57610;BME280;43435;46.186;9.024;2023-12-20T14:53:52;98297.25;;;15.81;22.25
57610;BME280;43435;46.186;9.024;2023-12-20T14:56:17;98279.00;;;15.66;22.11
57610;BME280;43435;46.186;9.024;2023-12-20T14:58:43;98287.13;;;15.71;22.30
57610;BME280;43435;46.186;9.024;2023-12-20T15:01:08;98291.63;;;15.54;22.72
57610;BME280;43435;46.186;9.024;2023-12-20T15:03:34;98320.91;;;15.38;22.48
57610;BME280;43435;46.186;9.024;2023-12-20T15:05:59;98304.94;;;15.32;22.86
57610;BME280;43435;46.186;9.024;2023-12-20T15:08:25;98317.19;;;15.28;22.28
57610;BME280;43435;46.186;9.024;2023-12-20T15:10:51;98336.16;;;15.21;22.85
57610;BME280;43435;46.186;9.024;2023-12-20T15:13:16;98326.59;;;15.13;22.89
57610;BME280;43435;46.186;9.024;2023-12-20T15:15:41;98297.53;;;15.10;23.12
57610;BME280;43435;46.186;9.024;2023-12-20T15:18:07;98316.34;;;14.98;23.00
57610;BME280;43435;46.186;9.024;2023-12-20T15:20:32;98312.38;;;14.89;22.88
57610;BME280;43435;46.186;9.024;2023-12-20T15:22:59;98326.56;;;15.25;26.71
57610;BME280;43435;46.186;9.024;2023-12-20T15:25:30;98347.06;;;15.43;24.98
57610;BME280;43435;46.186;9.024;2023-12-20T15:27:55;98327.88;;;15.11;22.90
57610;BME280;43435;46.186;9.024;2023-12-20T15:30:21;98315.72;;;15.08;23.40
57610;BME280;43435;46.186;9.024;2023-12-20T15:32:46;98349.38;;;14.87;23.29
57610;BME280;43435;46.186;9.024;2023-12-20T15:35:12;98353.94;;;14.75;23.43
57610;BME280;43435;46.186;9.024;2023-12-20T15:37:38;98366.31;;;14.76;23.35
57610;BME280;43435;46.186;9.024;2023-12-20T15:40:04;98355.13;;;14.67;23.51
57610;BME280;43435;46.186;9.024;2023-12-20T15:42:30;98366.91;;;14.66;23.84
57610;BME280;43435;46.186;9.024;2023-12-20T15:44:57;98334.13;;;14.53;23.72
57610;BME280;43435;46.186;9.024;2023-12-20T15:47:22;98346.47;;;14.54;23.52
57610;BME280;43435;46.186;9.024;2023-12-20T15:49:48;98349.72;;;14.44;23.83
57610;BME280;43435;46.186;9.024;2023-12-20T15:52:14;98362.19;;;14.38;24.06
57610;BME280;43435;46.186;9.024;2023-12-20T15:54:39;98366.13;;;14.36;24.10
57610;BME280;43435;46.186;9.024;2023-12-20T15:57:06;98382.81;;;14.26;24.50
57610;BME280;43435;46.186;9.024;2023-12-20T15:59:32;98359.59;;;14.20;24.40
57610;BME280;43435;46.186;9.024;2023-12-20T16:01:57;98378.97;;;14.22;24.12
57610;BME280;43435;46.186;9.024;2023-12-20T16:04:22;98393.41;;;14.21;23.91
57610;BME280;43435;46.186;9.024;2023-12-20T16:06:47;98448.09;;;14.20;24.14
57610;BME280;43435;46.186;9.024;2023-12-20T16:09:13;98392.81;;;14.19;24.34
57610;BME280;43435;46.186;9.024;2023-12-20T16:11:38;98394.53;;;14.13;24.28
57610;BME280;43435;46.186;9.024;2023-12-20T16:14:05;98413.56;;;14.12;24.52
57610;BME280;43435;46.186;9.024;2023-12-20T16:16:30;98413.44;;;14.07;24.43
57610;BME280;43435;46.186;9.024;2023-12-20T16:18:56;98410.16;;;14.05;24.31
57610;BME280;43435;46.186;9.024;2023-12-20T16:21:21;98409.69;;;14.08;24.18
57610;BME280;43435;46.186;9.024;2023-12-20T16:23:46;98408.97;;;14.00;24.06
57610;BME280;43435;46.186;9.024;2023-12-20T16:26:12;98422.38;;;14.00;24.09
57610;BME280;43435;46.186;9.024;2023-12-20T16:28:38;98413.28;;;14.01;24.41
57610;BME280;43435;46.186;9.024;2023-12-20T16:31:03;98415.38;;;13.99;24.70
57610;BME280;43435;46.186;9.024;2023-12-20T16:33:29;98434.81;;;13.95;24.69
57610;BME280;43435;46.186;9.024;2023-12-20T16:35:55;98448.09;;;13.90;24.84
57610;BME280;43435;46.186;9.024;2023-12-20T16:38:20;98434.81;;;13.95;24.89
57610;BME280;43435;46.186;9.024;2023-12-20T16:40:46;98441.00;;;13.95;24.69
57610;BME280;43435;46.186;9.024;2023-12-20T16:43:11;98430.59;;;13.87;24.84
57610;BME280;43435;46.186;9.024;2023-12-20T16:45:36;98437.59;;;13.88;24.87
57610;BME280;43435;46.186;9.024;2023-12-20T16:48:02;98434.09;;;13.88;24.71
57610;BME280;43435;46.186;9.024;2023-12-20T16:50:27;98447.72;;;13.86;25.06
57610;BME280;43435;46.186;9.024;2023-12-20T16:52:52;98443.25;;;13.80;24.93
57610;BME280;43435;46.186;9.024;2023-12-20T16:55:18;98418.56;;;13.78;25.32
57610;BME280;43435;46.186;9.024;2023-12-20T16:57:43;98437.63;;;13.70;25.90
57610;BME280;43435;46.186;9.024;2023-12-20T17:00:09;98419.69;;;13.70;25.69
57610;BME280;43435;46.186;9.024;2023-12-20T17:02:34;98427.28;;;13.73;25.63
57610;BME280;43435;46.186;9.024;2023-12-20T17:05:00;98429.81;;;13.68;25.62
57610;BME280;43435;46.186;9.024;2023-12-20T17:07:25;98431.53;;;13.63;25.76
57610;BME280;43435;46.186;9.024;2023-12-20T17:09:52;98416.66;;;13.67;25.73
57610;BME280;43435;46.186;9.024;2023-12-20T17:12:18;98415.00;;;13.66;25.77
57610;BME280;43435;46.186;9.024;2023-12-20T17:14:43;98407.44;;;13.63;25.94
57610;BME280;43435;46.186;9.024;2023-12-20T17:17:08;98401.09;;;13.57;26.17
57610;BME280;43435;46.186;9.024;2023-12-20T17:19:34;98428.69;;;13.58;26.05
57610;BME280;43435;46.186;9.024;2023-12-20T17:22:00;98408.19;;;13.51;25.89
57610;BME280;43435;46.186;9.024;2023-12-20T17:24:25;98426.09;;;13.51;25.89
57610;BME280;43435;46.186;9.024;2023-12-20T17:26:51;98420.53;;;13.52;25.96
57610;BME280;43435;46.186;9.024;2023-12-20T17:29:17;98453.63;;;13.58;26.31
57610;BME280;43435;46.186;9.024;2023-12-20T17:31:42;98417.25;;;13.50;25.79
57610;BME280;43435;46.186;9.024;2023-12-20T17:34:08;98426.69;;;13.53;26.05
57610;BME280;43435;46.186;9.024;2023-12-20T17:36:36;98435.84;;;13.45;25.85
57610;BME280;43435;46.186;9.024;2023-12-20T17:39:02;98443.88;;;13.45;26.09
57610;BME280;43435;46.186;9.024;2023-12-20T17:41:27;98442.91;;;13.40;26.02
57610;BME280;43435;46.186;9.024;2023-12-20T17:43:52;98438.41;;;13.40;26.00
57610;BME280;43435;46.186;9.024;2023-12-20T17:46:18;98479.09;;;13.49;26.17
57610;BME280;43435;46.186;9.024;2023-12-20T17:48:43;98459.97;;;13.45;26.17
57610;BME280;43435;46.186;9.024;2023-12-20T17:51:08;98464.94;;;13.42;26.29
57610;BME280;43435;46.186;9.024;2023-12-20T17:53:33;98458.91;;;13.46;26.09
57610;BME280;43435;46.186;9.024;2023-12-20T17:55:59;98481.47;;;13.39;26.73
57610;BME280;43435;46.186;9.024;2023-12-20T17:58:24;98463.59;;;13.33;26.71
57610;BME280;43435;46.186;9.024;2023-12-20T18:00:50;98464.88;;;13.30;26.79
57610;BME280;43435;46.186;9.024;2023-12-20T18:03:15;98491.47;;;13.25;26.73
57610;BME280;43435;46.186;9.024;2023-12-20T18:05:40;98466.50;;;13.31;26.59
57610;BME280;43435;46.186;9.024;2023-12-20T18:08:06;98476.84;;;13.27;26.77
57610;BME280;43435;46.186;9.024;2023-12-20T18:10:31;98459.34;;;13.43;32.70
57610;BME280;43435;46.186;9.024;2023-12-20T18:12:56;98500.94;;;14.01;29.22
57610;BME280;43435;46.186;9.024;2023-12-20T18:15:22;98484.09;;;14.12;29.06
57610;BME280;43435;46.186;9.024;2023-12-20T18:17:47;98515.13;;;14.20;26.83
57610;BME280;43435;46.186;9.024;2023-12-20T18:20:15;98484.63;;;14.02;27.01
57610;BME280;43435;46.186;9.024;2023-12-20T18:22:43;98518.59;;;13.90;27.03
57610;BME280;43435;46.186;9.024;2023-12-20T18:25:09;98533.44;;;13.74;26.96
57610;BME280;43435;46.186;9.024;2023-12-20T18:27:34;98517.53;;;13.54;26.72
57610;BME280;43435;46.186;9.024;2023-12-20T18:30:00;98529.31;;;13.53;26.55
57610;BME280;43435;46.186;9.024;2023-12-20T18:32:31;98550.31;;;13.57;26.69
57610;BME280;43435;46.186;9.024;2023-12-20T18:34:57;98533.47;;;13.49;26.71
57610;BME280;43435;46.186;9.024;2023-12-20T18:37:22;98541.94;;;13.46;27.03
57610;BME280;43435;46.186;9.024;2023-12-20T18:39:47;98554.16;;;13.42;27.07
57610;BME280;43435;46.186;9.024;2023-12-20T18:42:13;98544.31;;;13.36;26.99
57610;BME280;43435;46.186;9.024;2023-12-20T18:44:38;98546.56;;;13.39;27.06
57610;BME280;43435;46.186;9.024;2023-12-20T18:47:04;98555.41;;;13.40;26.72
57610;BME280;43435;46.186;9.024;2023-12-20T18:49:29;98541.44;;;13.38;27.06
57610;BME280;43435;46.186;9.024;2023-12-20T18:51:54;98540.88;;;13.29;27.50
57610;BME280;43435;46.186;9.024;2023-12-20T18:54:20;98543.78;;;13.27;27.36
57610;BME280;43435;46.186;9.024;2023-12-20T18:56:46;98541.03;;;13.34;26.93
57610;BME280;43435;46.186;9.024;2023-12-20T18:59:13;98539.84;;;13.30;26.77
57610;BME280;43435;46.186;9.024;2023-12-20T19:01:40;98527.94;;;13.26;26.97
57610;BME280;43435;46.186;9.024;2023-12-20T19:04:05;98537.44;;;13.22;26.99
57610;BME280;43435;46.186;9.024;2023-12-20T19:06:31;98577.78;;;13.20;26.91
57610;BME280;43435;46.186;9.024;2023-12-20T19:08:56;98551.25;;;13.19;26.90
57610;BME280;43435;46.186;9.024;2023-12-20T19:11:21;98555.75;;;13.25;26.73
57610;BME280;43435;46.186;9.024;2023-12-20T19:13:47;98547.75;;;13.18;27.34
57610;BME280;43435;46.186;9.024;2023-12-20T19:16:12;98542.47;;;13.12;27.17
57610;BME280;43435;46.186;9.024;2023-12-20T19:18:38;98579.03;;;13.18;27.18
57610;BME280;43435;46.186;9.024;2023-12-20T19:21:04;98556.00;;;13.17;27.10
57610;BME280;43435;46.186;9.024;2023-12-20T19:23:35;98558.66;;;13.23;26.87
57610;BME280;43435;46.186;9.024;2023-12-20T19:26:02;98585.88;;;13.14;27.06
57610;BME280;43435;46.186;9.024;2023-12-20T19:28:28;98562.81;;;13.13;27.12
57610;BME280;43435;46.186;9.024;2023-12-20T19:30:53;98605.75;;;13.31;27.22
57610;BME280;43435;46.186;9.024;2023-12-20T19:33:19;98575.34;;;13.19;27.33
57610;BME280;43435;46.186;9.024;2023-12-20T19:35:46;98569.66;;;13.09;27.29
57610;BME280;43435;46.186;9.024;2023-12-20T19:38:11;98572.19;;;13.03;27.51
57610;BME280;43435;46.186;9.024;2023-12-20T19:40:36;98561.94;;;12.94;28.11
57610;BME280;43435;46.186;9.024;2023-12-20T19:43:02;98572.09;;;13.10;27.65
57610;BME280;43435;46.186;9.024;2023-12-20T19:45:27;98582.63;;;13.12;27.54
57610;BME280;43435;46.186;9.024;2023-12-20T19:47:53;98567.06;;;12.95;27.63
57610;BME280;43435;46.186;9.024;2023-12-20T19:50:18;98564.72;;;13.05;27.65
57610;BME280;43435;46.186;9.024;2023-12-20T19:52:45;98561.91;;;13.00;27.94
57610;BME280;43435;46.186;9.024;2023-12-20T19:55:10;98553.31;;;12.92;27.97
57610;BME280;43435;46.186;9.024;2023-12-20T19:57:36;98565.22;;;12.96;28.22
57610;BME280;43435;46.186;9.024;2023-12-20T20:00:02;98572.38;;;13.02;27.59
57610;BME280;43435;46.186;9.024;2023-12-20T20:02:27;98583.56;;;12.92;27.93
57610;BME280;43435;46.186;9.024;2023-12-20T20:04:52;98569.34;;;12.92;27.94
57610;BME280;43435;46.186;9.024;2023-12-20T20:07:18;98569.28;;;13.05;27.24
57610;BME280;43435;46.186;9.024;2023-12-20T20:09:47;98565.97;;;13.03;27.64
57610;BME280;43435;46.186;9.024;2023-12-20T20:12:12;98559.81;;;13.02;27.42
57610;BME280;43435;46.186;9.024;2023-12-20T20:14:38;98572.81;;;12.99;27.57
57610;BME280;43435;46.186;9.024;2023-12-20T20:17:03;98572.00;;;12.98;27.73
57610;BME280;43435;46.186;9.024;2023-12-20T20:19:29;98573.47;;;12.94;27.70
57610;BME280;43435;46.186;9.024;2023-12-20T20:21:55;98565.91;;;12.85;27.73
57610;BME280;43435;46.186;9.024;2023-12-20T20:24:20;98568.59;;;12.85;27.97
57610;BME280;43435;46.186;9.024;2023-12-20T20:26:46;98584.56;;;12.98;28.05
57610;BME280;43435;46.186;9.024;2023-12-20T20:29:11;98573.25;;;12.96;27.66
57610;BME280;43435;46.186;9.024;2023-12-20T20:31:36;98574.25;;;13.01;27.72
57610;BME280;43435;46.186;9.024;2023-12-20T20:34:02;98584.19;;;12.94;27.36
57610;BME280;43435;46.186;9.024;2023-12-20T20:36:28;98556.47;;;12.82;27.20
57610;BME280;43435;46.186;9.024;2023-12-20T20:38:54;98549.75;;;12.98;26.92
57610;BME280;43435;46.186;9.024;2023-12-20T20:41:19;98555.19;;;12.85;27.31
57610;BME280;43435;46.186;9.024;2023-12-20T20:43:45;98539.00;;;12.79;27.50
57610;BME280;43435;46.186;9.024;2023-12-20T20:46:10;98541.41;;;12.88;27.61
57610;BME280;43435;46.186;9.024;2023-12-20T20:48:36;98548.41;;;12.89;27.39
57610;BME280;43435;46.186;9.024;2023-12-20T20:51:01;98541.34;;;12.94;27.40
57610;BME280;43435;46.186;9.024;2023-12-20T20:53:27;98575.75;;;12.91;27.55
57610;BME280;43435;46.186;9.024;2023-12-20T20:55:52;98551.72;;;12.84;27.77
57610;BME280;43435;46.186;9.024;2023-12-20T20:58:18;98551.28;;;12.87;27.26
57610;BME280;43435;46.186;9.024;2023-12-20T21:00:43;98546.19;;;12.79;27.66
57610;BME280;43435;46.186;9.024;2023-12-20T21:03:08;98539.81;;;12.80;27.75
57610;BME280;43435;46.186;9.024;2023-12-20T21:05:34;98565.31;;;12.82;27.89
57610;BME280;43435;46.186;9.024;2023-12-20T21:07:59;98543.56;;;12.72;27.92
57610;BME280;43435;46.186;9.024;2023-12-20T21:10:24;98565.38;;;12.76;27.89
57610;BME280;43435;46.186;9.024;2023-12-20T21:12:50;98538.22;;;12.72;27.92
57610;BME280;43435;46.186;9.024;2023-12-20T21:15:15;98538.25;;;12.66;28.08
57610;BME280;43435;46.186;9.024;2023-12-20T21:17:40;98533.25;;;12.76;27.79
57610;BME280;43435;46.186;9.024;2023-12-20T21:20:12;98509.78;;;12.78;27.58
57610;BME280;43435;46.186;9.024;2023-12-20T21:22:38;98508.13;;;12.77;27.78
57610;BME280;43435;46.186;9.024;2023-12-20T21:25:04;98530.31;;;12.84;27.98
57610;BME280;43435;46.186;9.024;2023-12-20T21:27:29;98522.72;;;12.81;27.68
57610;BME280;43435;46.186;9.024;2023-12-20T21:29:56;98513.47;;;12.77;27.29
57610;BME280;43435;46.186;9.024;2023-12-20T21:32:21;98527.91;;;12.76;27.73
57610;BME280;43435;46.186;9.024;2023-12-20T21:34:47;98541.91;;;12.78;27.72
57610;BME280;43435;46.186;9.024;2023-12-20T21:37:12;98530.31;;;12.84;27.44
57610;BME280;43435;46.186;9.024;2023-12-20T21:39:38;98520.50;;;12.78;27.41
57610;BME280;43435;46.186;9.024;2023-12-20T21:42:03;98532.81;;;12.79;27.86
57610;BME280;43435;46.186;9.024;2023-12-20T21:44:29;98518.84;;;12.77;27.62
57610;BME280;43435;46.186;9.024;2023-12-20T21:46:54;98516.16;;;12.77;27.29
57610;BME280;43435;46.186;9.024;2023-12-20T21:49:20;98524.19;;;12.77;27.38
57610;BME280;43435;46.186;9.024;2023-12-20T21:51:45;98523.75;;;12.80;27.85
57610;BME280;43435;46.186;9.024;2023-12-20T21:54:10;98533.38;;;12.88;27.05
57610;BME280;43435;46.186;9.024;2023-12-20T21:56:36;98527.63;;;12.84;27.60
57610;BME280;43435;46.186;9.024;2023-12-20T21:59:01;98517.97;;;12.83;27.69
57610;BME280;43435;46.186;9.024;2023-12-20T22:01:27;98501.75;;;12.78;27.44
57610;BME280;43435;46.186;9.024;2023-12-20T22:03:52;98506.66;;;12.81;27.89
57610;BME280;43435;46.186;9.024;2023-12-20T22:06:17;98504.63;;;12.76;27.74
57610;BME280;43435;46.186;9.024;2023-12-20T22:08:43;98506.94;;;12.73;27.87
57610;BME280;43435;46.186;9.024;2023-12-20T22:11:08;98509.78;;;12.78;27.55
57610;BME280;43435;46.186;9.024;2023-12-20T22:13:33;98530.84;;;12.68;27.44
57610;BME280;43435;46.186;9.024;2023-12-20T22:15:58;98516.44;;;12.69;27.89
57610;BME280;43435;46.186;9.024;2023-12-20T22:18:24;98523.75;;;12.80;27.40
57610;BME280;43435;46.186;9.024;2023-12-20T22:20:49;98530.56;;;12.76;27.48
57610;BME280;43435;46.186;9.024;2023-12-20T22:23:16;98519.34;;;12.67;27.66
57610;BME280;43435;46.186;9.024;2023-12-20T22:25:42;98519.50;;;12.72;27.94
57610;BME280;43435;46.186;9.024;2023-12-20T22:28:07;98515.47;;;12.63;28.15
57610;BME280;43435;46.186;9.024;2023-12-20T22:30:32;98527.91;;;12.76;27.35
57610;BME280;43435;46.186;9.024;2023-12-20T22:32:58;98519.91;;;12.69;28.31
57610;BME280;43435;46.186;9.024;2023-12-20T22:35:23;98524.84;;;12.72;27.76
57610;BME280;43435;46.186;9.024;2023-12-20T22:37:48;98549.94;;;12.78;27.94
57610;BME280;43435;46.186;9.024;2023-12-20T22:40:13;98548.25;;;12.77;28.06
